sensor_id;sensor_type;location;lat;lon;timestamp;pressure;altitude;pressure_sealevel;temperature;humidity
74524;BME280;63074;44.696;10.358;2023-05-10T00:02:18;99652.19;;;14.96;100.00
74524;BME280;63074;44.696;10.358;2023-05-10T00:04:44;99647.84;;;15.79;100.00
74524;BME280;63074;44.696;10.358;2023-05-10T00:07:11;99642.88;;;15.92;100.00
74524;BME280;63074;44.696;10.358;2023-05-10T00:09:37;99650.38;;;16.10;100.00
74524;BME280;63074;44.696;10.358;2023-05-10T00:12:03;99650.13;;;16.06;100.00
74524;BME280;63074;44.696;10.358;2023-05-10T00:14:34;99639.75;;;15.69;100.00
74524;BME280;63074;44.696;10.358;2023-05-10T00:17:00;99639.75;;;15.69;100.00
74524;BME280;63074;44.696;10.358;2023-05-10T00:19:27;99635.06;;;15.26;100.00
74524;BME280;63074;44.696;10.358;2023-05-10T00:21:53;99634.59;;;14.93;100.00
74524;BME280;63074;44.696;10.358;2023-05-10T00:24:19;99630.28;;;14.82;100.00
74524;BME280;63074;44.696;10.358;2023-05-10T00:26:45;99617.50;;;15.08;100.00
74524;BME280;63074;44.696;10.358;2023-05-10T00:29:11;99616.09;;;15.26;100.00
74524;BME280;63074;44.696;10.358;2023-05-10T00:31:38;99609.25;;;15.43;100.00
74524;BME280;63074;44.696;10.358;2023-05-10T00:34:04;99630.22;;;15.12;100.00
74524;BME280;63074;44.696;10.358;2023-05-10T00:36:30;99636.09;;;15.35;100.00
74524;BME280;63074;44.696;10.358;2023-05-10T00:38:57;99620.00;;;15.64;100.00
74524;BME280;63074;44.696;10.358;2023-05-10T00:41:23;99617.34;;;15.48;100.00
74524;BME280;63074;44.696;10.358;2023-05-10T00:43:49;99608.47;;;15.38;100.00
74524;BME280;63074;44.696;10.358;2023-05-10T00:46:16;99607.94;;;15.31;100.00
74524;BME280;63074;44.696;10.358;2023-05-10T00:48:43;99606.81;;;15.96;100.00
74524;BME280;63074;44.696;10.358;2023-05-10T00:51:09;99598.59;;;15.67;100.00
74524;BME280;63074;44.696;10.358;2023-05-10T00:53:35;99589.94;;;15.65;100.00
74524;BME280;63074;44.696;10.358;2023-05-10T00:56:02;99595.00;;;15.82;100.00
74524;BME280;63074;44.696;10.358;2023-05-10T00:58:29;99589.59;;;15.82;100.00
74524;BME280;63074;44.696;10.358;2023-05-10T01:00:57;99589.47;;;15.97;100.00
74524;BME280;63074;44.696;10.358;2023-05-10T01:03:25;99593.00;;;15.48;100.00
74524;BME280;63074;44.696;10.358;2023-05-10T01:05:51;99598.00;;;15.80;100.00
74524;BME280;63074;44.696;10.358;2023-05-10T01:08:17;99592.97;;;15.98;100.00
74524;BME280;63074;44.696;10.358;2023-05-10T01:10:44;99586.75;;;15.48;100.00
74524;BME280;63074;44.696;10.358;2023-05-10T01:13:12;99592.06;;;15.73;100.00
74524;BME280;63074;44.696;10.358;2023-05-10T01:15:39;99595.78;;;15.88;100.00
74524;BME280;63074;44.696;10.358;2023-05-10T01:18:06;99595.09;;;15.62;100.00
74524;BME280;63074;44.696;10.358;2023-05-10T01:20:41;99592.81;;;15.30;100.00
74524;BME280;63074;44.696;10.358;2023-05-10T01:37:37;99587.53;;;14.79;100.00
74524;BME280;63074;44.696;10.358;2023-05-10T01:40:32;99591.75;;;15.20;100.00
74524;BME280;63074;44.696;10.358;2023-05-10T01:43:04;99591.69;;;15.36;100.00
74524;BME280;63074;44.696;10.358;2023-05-10T01:45:47;99589.78;;;15.36;100.00
74524;BME280;63074;44.696;10.358;2023-05-10T01:48:16;99585.53;;;15.20;100.00
74524;BME280;63074;44.696;10.358;2023-05-10T01:50:47;99583.53;;;15.46;100.00
74524;BME280;63074;44.696;10.358;2023-05-10T01:53:18;99587.28;;;15.55;100.00
74524;BME280;63074;44.696;10.358;2023-05-10T01:55:50;99584.59;;;15.50;100.00
74524;BME280;63074;44.696;10.358;2023-05-10T01:58:28;99585.66;;;15.59;100.00
74524;BME280;63074;44.696;10.358;2023-05-10T02:00:56;99573.34;;;15.28;100.00
74524;BME280;63074;44.696;10.358;2023-05-10T02:03:24;99581.94;;;15.35;100.00
74524;BME280;63074;44.696;10.358;2023-05-10T02:05:53;99575.94;;;15.48;100.00
74524;BME280;63074;44.696;10.358;2023-05-10T02:08:21;99578.97;;;15.31;100.00
74524;BME280;63074;44.696;10.358;2023-05-10T02:10:50;99584.53;;;15.01;100.00
74524;BME280;63074;44.696;10.358;2023-05-10T02:13:18;99578.16;;;15.36;100.00
74524;BME280;63074;44.696;10.358;2023-05-10T02:15:48;99573.88;;;15.25;100.00
74524;BME280;63074;44.696;10.358;2023-05-10T02:18:14;99571.75;;;15.16;100.00
74524;BME280;63074;44.696;10.358;2023-05-10T02:20:43;99576.34;;;15.21;100.00
74524;BME280;63074;44.696;10.358;2023-05-10T02:23:10;99571.38;;;15.38;100.00
74524;BME280;63074;44.696;10.358;2023-05-10T02:25:37;99568.38;;;15.40;100.00
74524;BME280;63074;44.696;10.358;2023-05-10T02:28:06;99559.16;;;15.46;100.00
74524;BME280;63074;44.696;10.358;2023-05-10T02:30:34;99564.50;;;15.61;100.00
74524;BME280;63074;44.696;10.358;2023-05-10T02:33:02;99568.81;;;15.62;100.00
74524;BME280;63074;44.696;10.358;2023-05-10T02:35:32;99561.59;;;15.42;100.00
74524;BME280;63074;44.696;10.358;2023-05-10T02:38:00;99559.81;;;15.28;100.00
74524;BME280;63074;44.696;10.358;2023-05-10T02:40:28;99561.91;;;15.36;100.00
74524;BME280;63074;44.696;10.358;2023-05-10T02:42:56;99560.22;;;15.50;100.00
74524;BME280;63074;44.696;10.358;2023-05-10T02:45:26;99553.53;;;15.32;100.00
74524;BME280;63074;44.696;10.358;2023-05-10T02:47:54;99555.47;;;15.27;100.00
74524;BME280;63074;44.696;10.358;2023-05-10T02:50:20;99550.88;;;15.27;100.00
74524;BME280;63074;44.696;10.358;2023-05-10T02:52:50;99540.31;;;15.26;100.00
74524;BME280;63074;44.696;10.358;2023-05-10T02:55:22;99541.78;;;14.98;100.00
74524;BME280;63074;44.696;10.358;2023-05-10T02:58:01;99537.38;;;15.12;100.00
74524;BME280;63074;44.696;10.358;2023-05-10T03:00:28;99542.28;;;15.10;100.00
74524;BME280;63074;44.696;10.358;2023-05-10T03:02:55;99542.78;;;15.22;100.00
74524;BME280;63074;44.696;10.358;2023-05-10T03:05:21;99545.59;;;14.92;100.00
74524;BME280;63074;44.696;10.358;2023-05-10T03:07:48;99541.06;;;15.36;100.00
74524;BME280;63074;44.696;10.358;2023-05-10T03:10:14;99537.00;;;15.39;100.00
74524;BME280;63074;44.696;10.358;2023-05-10T03:16:19;99538.38;;;15.31;100.00
74524;BME280;63074;44.696;10.358;2023-05-10T03:18:29;99531.84;;;15.37;100.00
74524;BME280;63074;44.696;10.358;2023-05-10T03:20:59;99532.66;;;15.38;100.00
74524;BME280;63074;44.696;10.358;2023-05-10T03:23:34;99531.69;;;15.13;100.00
74524;BME280;63074;44.696;10.358;2023-05-10T03:26:01;99533.69;;;15.57;100.00
74524;BME280;63074;44.696;10.358;2023-05-10T03:28:28;99531.69;;;15.18;100.00
74524;BME280;63074;44.696;10.358;2023-05-10T03:30:55;99532.00;;;15.02;100.00
74524;BME280;63074;44.696;10.358;2023-05-10T03:33:22;99538.69;;;15.30;100.00
74524;BME280;63074;44.696;10.358;2023-05-10T03:35:48;99535.91;;;15.35;100.00
74524;BME280;63074;44.696;10.358;2023-05-10T03:38:14;99530.50;;;15.35;100.00
74524;BME280;63074;44.696;10.358;2023-05-10T03:40:41;99532.63;;;15.43;100.00
74524;BME280;63074;44.696;10.358;2023-05-10T03:43:07;99531.38;;;15.25;100.00
74524;BME280;63074;44.696;10.358;2023-05-10T03:45:33;99535.38;;;15.33;100.00
74524;BME280;63074;44.696;10.358;2023-05-10T03:47:59;99535.19;;;15.19;100.00
74524;BME280;63074;44.696;10.358;2023-05-10T03:50:26;99540.13;;;15.61;100.00
74524;BME280;63074;44.696;10.358;2023-05-10T03:52:52;99536.31;;;15.13;100.00
74524;BME280;63074;44.696;10.358;2023-05-10T03:55:18;99534.69;;;15.07;100.00
74524;BME280;63074;44.696;10.358;2023-05-10T03:57:44;99533.63;;;15.08;100.00
74524;BME280;63074;44.696;10.358;2023-05-10T04:00:11;99529.94;;;14.78;100.00
74524;BME280;63074;44.696;10.358;2023-05-10T04:02:38;99524.31;;;14.70;100.00
74524;BME280;63074;44.696;10.358;2023-05-10T04:05:04;99532.16;;;14.56;100.00
74524;BME280;63074;44.696;10.358;2023-05-10T04:07:30;99534.31;;;14.69;100.00
74524;BME280;63074;44.696;10.358;2023-05-10T04:09:56;99536.97;;;14.74;100.00
74524;BME280;63074;44.696;10.358;2023-05-10T04:12:23;99533.78;;;14.67;100.00
74524;BME280;63074;44.696;10.358;2023-05-10T04:14:49;99539.47;;;14.50;100.00
74524;BME280;63074;44.696;10.358;2023-05-10T04:17:16;99548.97;;;14.43;100.00
74524;BME280;63074;44.696;10.358;2023-05-10T04:19:43;99555.59;;;14.96;100.00
74524;BME280;63074;44.696;10.358;2023-05-10T04:22:09;99550.22;;;14.86;100.00
74524;BME280;63074;44.696;10.358;2023-05-10T04:24:35;99556.97;;;14.94;100.00
74524;BME280;63074;44.696;10.358;2023-05-10T04:27:01;99555.97;;;14.34;100.00
74524;BME280;63074;44.696;10.358;2023-05-10T04:29:27;99561.31;;;14.79;100.00
74524;BME280;63074;44.696;10.358;2023-05-10T04:31:54;99562.72;;;14.26;100.00
74524;BME280;63074;44.696;10.358;2023-05-10T04:34:21;99553.53;;;14.58;100.00
74524;BME280;63074;44.696;10.358;2023-05-10T04:36:47;99550.28;;;14.40;100.00
74524;BME280;63074;44.696;10.358;2023-05-10T04:39:13;99545.16;;;14.44;100.00
74524;BME280;63074;44.696;10.358;2023-05-10T04:41:40;99542.44;;;14.69;100.00
74524;BME280;63074;44.696;10.358;2023-05-10T04:44:06;99545.94;;;14.70;100.00
74524;BME280;63074;44.696;10.358;2023-05-10T04:46:32;99543.25;;;14.55;100.00
74524;BME280;63074;44.696;10.358;2023-05-10T04:48:58;99538.44;;;14.41;100.00
74524;BME280;63074;44.696;10.358;2023-05-10T04:51:24;99541.38;;;14.40;100.00
74524;BME280;63074;44.696;10.358;2023-05-10T04:53:52;99534.59;;;14.52;100.00
74524;BME280;63074;44.696;10.358;2023-05-10T04:56:18;99533.00;;;14.46;100.00
74524;BME280;63074;44.696;10.358;2023-05-10T04:58:44;99532.72;;;14.48;100.00
74524;BME280;63074;44.696;10.358;2023-05-10T05:01:10;99534.84;;;14.71;100.00
74524;BME280;63074;44.696;10.358;2023-05-10T05:03:37;99538.94;;;14.53;100.00
74524;BME280;63074;44.696;10.358;2023-05-10T05:06:04;99533.53;;;14.53;100.00
74524;BME280;63074;44.696;10.358;2023-05-10T05:08:30;99535.94;;;14.65;100.00
74524;BME280;63074;44.696;10.358;2023-05-10T05:10:57;99526.75;;;14.51;100.00
74524;BME280;63074;44.696;10.358;2023-05-10T05:13:23;99524.53;;;14.73;100.00
74524;BME280;63074;44.696;10.358;2023-05-10T05:15:49;99531.06;;;14.67;100.00
74524;BME280;63074;44.696;10.358;2023-05-10T05:18:15;99525.84;;;14.91;100.00
74524;BME280;63074;44.696;10.358;2023-05-10T05:20:42;99526.41;;;14.88;100.00
74524;BME280;63074;44.696;10.358;2023-05-10T05:23:08;99528.59;;;14.81;100.00
74524;BME280;63074;44.696;10.358;2023-05-10T05:25:36;99532.38;;;14.75;100.00
74524;BME280;63074;44.696;10.358;2023-05-10T05:28:03;99532.97;;;14.72;100.00
74524;BME280;63074;44.696;10.358;2023-05-10T05:30:29;99536.50;;;14.57;100.00
74524;BME280;63074;44.696;10.358;2023-05-10T05:32:55;99540.38;;;15.05;100.00
74524;BME280;63074;44.696;10.358;2023-05-10T05:35:22;99543.19;;;14.75;100.00
74524;BME280;63074;44.696;10.358;2023-05-10T05:37:48;99543.78;;;14.72;100.00
74524;BME280;63074;44.696;10.358;2023-05-10T05:40:14;99544.06;;;14.65;100.00
74524;BME280;63074;44.696;10.358;2023-05-10T05:42:41;99541.28;;;14.91;100.00
74524;BME280;63074;44.696;10.358;2023-05-10T05:45:07;99545.97;;;14.60;100.00
74524;BME280;63074;44.696;10.358;2023-05-10T05:47:34;99541.91;;;14.57;100.00
74524;BME280;63074;44.696;10.358;2023-05-10T05:50:01;99542.72;;;14.63;100.00
74524;BME280;63074;44.696;10.358;2023-05-10T05:52:27;99553.53;;;14.47;100.00
74524;BME280;63074;44.696;10.358;2023-05-10T05:54:53;99549.78;;;14.43;100.00
74524;BME280;63074;44.696;10.358;2023-05-10T05:57:19;99548.13;;;14.58;100.00
74524;BME280;63074;44.696;10.358;2023-05-10T05:59:45;99543.00;;;14.51;100.00
74524;BME280;63074;44.696;10.358;2023-05-10T06:02:12;99550.81;;;14.52;100.00
74524;BME280;63074;44.696;10.358;2023-05-10T06:04:38;99546.22;;;14.53;100.00
74524;BME280;63074;44.696;10.358;2023-05-10T06:07:04;99549.19;;;14.67;100.00
74524;BME280;63074;44.696;10.358;2023-05-10T06:09:31;99555.19;;;14.43;100.00
74524;BME280;63074;44.696;10.358;2023-05-10T06:11:57;99555.97;;;14.39;100.00
74524;BME280;63074;44.696;10.358;2023-05-10T06:14:23;99556.78;;;14.09;100.00
74524;BME280;63074;44.696;10.358;2023-05-10T06:16:50;99561.09;;;14.25;100.00
74524;BME280;63074;44.696;10.358;2023-05-10T06:19:16;99560.56;;;14.38;100.00
74524;BME280;63074;44.696;10.358;2023-05-10T06:21:42;99554.88;;;14.25;100.00
74524;BME280;63074;44.696;10.358;2023-05-10T06:24:08;99563.53;;;14.47;100.00
74524;BME280;63074;44.696;10.358;2023-05-10T06:26:35;99569.47;;;14.59;100.00
74524;BME280;63074;44.696;10.358;2023-05-10T06:29:01;99567.84;;;14.53;100.00
74524;BME280;63074;44.696;10.358;2023-05-10T06:31:28;99561.09;;;14.40;100.00
74524;BME280;63074;44.696;10.358;2023-05-10T06:33:54;99560.28;;;14.35;100.00
74524;BME280;63074;44.696;10.358;2023-05-10T06:36:20;99570.88;;;14.41;100.00
74524;BME280;63074;44.696;10.358;2023-05-10T06:38:47;99574.63;;;14.35;100.00
74524;BME280;63074;44.696;10.358;2023-05-10T06:41:14;99589.47;;;14.33;100.00
74524;BME280;63074;44.696;10.358;2023-05-10T06:43:40;99588.66;;;13.97;100.00
74524;BME280;63074;44.696;10.358;2023-05-10T06:46:07;99597.56;;;13.97;100.00
74524;BME280;63074;44.696;10.358;2023-05-10T06:48:34;99600.81;;;13.99;100.00
74524;BME280;63074;44.696;10.358;2023-05-10T06:51:01;99600.31;;;14.12;100.00
74524;BME280;63074;44.696;10.358;2023-05-10T06:53:27;99601.63;;;14.00;100.00
74524;BME280;63074;44.696;10.358;2023-05-10T06:55:53;99605.66;;;13.97;100.00
74524;BME280;63074;44.696;10.358;2023-05-10T06:58:19;99604.03;;;13.76;100.00
74524;BME280;63074;44.696;10.358;2023-05-10T07:00:46;99610.78;;;13.78;100.00
74524;BME280;63074;44.696;10.358;2023-05-10T07:03:13;99612.41;;;13.90;100.00
74524;BME280;63074;44.696;10.358;2023-05-10T07:05:39;99621.91;;;14.12;100.00
74524;BME280;63074;44.696;10.358;2023-05-10T07:08:05;99618.91;;;13.83;100.00
74524;BME280;63074;44.696;10.358;2023-05-10T07:10:33;99613.69;;;13.62;100.00
74524;BME280;63074;44.696;10.358;2023-05-10T07:12:59;99634.81;;;13.80;100.00
74524;BME280;63074;44.696;10.358;2023-05-10T07:15:27;99633.34;;;13.42;100.00
74524;BME280;63074;44.696;10.358;2023-05-10T07:17:53;99621.38;;;13.17;100.00
74524;BME280;63074;44.696;10.358;2023-05-10T07:20:20;99636.38;;;13.08;100.00
74524;BME280;63074;44.696;10.358;2023-05-10T07:22:46;99632.44;;;12.79;100.00
74524;BME280;63074;44.696;10.358;2023-05-10T07:25:12;99646.06;;;13.04;100.00
74524;BME280;63074;44.696;10.358;2023-05-10T07:27:38;99640.47;;;12.69;100.00
74524;BME280;63074;44.696;10.358;2023-05-10T07:30:05;99955.00;;;12.41;100.00
74524;BME280;63074;44.696;10.358;2023-05-10T07:32:31;100187.00;;;12.40;100.00
74524;BME280;63074;44.696;10.358;2023-05-10T07:34:58;99658.53;;;12.68;100.00
74524;BME280;63074;44.696;10.358;2023-05-10T07:37:24;99660.97;;;12.75;100.00
74524;BME280;63074;44.696;10.358;2023-05-10T07:39:50;99664.19;;;12.67;100.00
74524;BME280;63074;44.696;10.358;2023-05-10T07:42:17;99661.44;;;12.62;100.00
74524;BME280;63074;44.696;10.358;2023-05-10T07:44:44;99671.47;;;12.71;100.00
74524;BME280;63074;44.696;10.358;2023-05-10T07:47:10;99667.19;;;12.75;100.00
74524;BME280;63074;44.696;10.358;2023-05-10T07:49:36;99672.63;;;12.48;100.00
74524;BME280;63074;44.696;10.358;2023-05-10T07:52:03;99672.63;;;12.48;100.00
74524;BME280;63074;44.696;10.358;2023-05-10T07:54:30;99668.50;;;12.36;100.00
74524;BME280;63074;44.696;10.358;2023-05-10T07:56:56;99679.84;;;12.11;100.00
74524;BME280;63074;44.696;10.358;2023-05-10T07:59:22;99689.75;;;12.32;100.00
74524;BME280;63074;44.696;10.358;2023-05-10T08:01:48;99688.88;;;12.27;100.00
74524;BME280;63074;44.696;10.358;2023-05-10T08:04:15;99691.19;;;12.40;100.00
74524;BME280;63074;44.696;10.358;2023-05-10T08:06:41;99683.84;;;12.35;100.00
74524;BME280;63074;44.696;10.358;2023-05-10T08:09:08;99682.44;;;12.28;100.00
74524;BME280;63074;44.696;10.358;2023-05-10T08:11:34;99688.88;;;12.27;100.00
74524;BME280;63074;44.696;10.358;2023-05-10T08:14:02;99693.09;;;12.44;100.00
74524;BME280;63074;44.696;10.358;2023-05-10T08:16:28;99689.66;;;12.22;100.00
74524;BME280;63074;44.696;10.358;2023-05-10T08:18:55;99689.69;;;12.27;100.00
74524;BME280;63074;44.696;10.358;2023-05-10T08:21:21;99696.63;;;12.50;100.00
74524;BME280;63074;44.696;10.358;2023-05-10T08:23:47;99691.13;;;12.35;100.00
74524;BME280;63074;44.696;10.358;2023-05-10T08:26:13;99696.84;;;12.43;100.00
74524;BME280;63074;44.696;10.358;2023-05-10T08:28:39;99702.63;;;12.25;100.00
74524;BME280;63074;44.696;10.358;2023-05-10T08:31:06;99715.25;;;12.25;100.00
74524;BME280;63074;44.696;10.358;2023-05-10T08:33:32;99711.75;;;11.97;100.00
74524;BME280;63074;44.696;10.358;2023-05-10T08:35:59;99714.16;;;12.21;100.00
74524;BME280;63074;44.696;10.358;2023-05-10T08:38:25;99719.06;;;12.56;100.00
74524;BME280;63074;44.696;10.358;2023-05-10T08:40:54;99719.09;;;12.29;100.00
74524;BME280;63074;44.696;10.358;2023-05-10T08:43:27;99710.63;;;12.47;100.00
74524;BME280;63074;44.696;10.358;2023-05-10T08:45:55;99716.19;;;12.35;100.00
74524;BME280;63074;44.696;10.358;2023-05-10T08:48:24;99722.22;;;12.21;100.00
74524;BME280;63074;44.696;10.358;2023-05-10T08:50:54;99731.06;;;12.16;100.00
74524;BME280;63074;44.696;10.358;2023-05-10T08:53:24;99727.47;;;12.32;100.00
74524;BME280;63074;44.696;10.358;2023-05-10T08:55:53;99719.78;;;12.46;100.00
74524;BME280;63074;44.696;10.358;2023-05-10T08:58:20;99728.47;;;12.26;100.00
74524;BME280;63074;44.696;10.358;2023-05-10T09:00:48;99733.03;;;12.52;100.00
74524;BME280;63074;44.696;10.358;2023-05-10T09:03:15;99737.56;;;12.20;100.00
74524;BME280;63074;44.696;10.358;2023-05-10T09:05:42;99739.56;;;12.30;100.00
74524;BME280;63074;44.696;10.358;2023-05-10T09:08:11;99752.38;;;12.44;100.00
74524;BME280;63074;44.696;10.358;2023-05-10T09:10:40;99749.59;;;12.34;100.00
74524;BME280;63074;44.696;10.358;2023-05-10T09:13:09;99757.97;;;12.11;100.00
74524;BME280;63074;44.696;10.358;2023-05-10T09:15:36;99761.28;;;12.77;100.00
74524;BME280;63074;44.696;10.358;2023-05-10T09:18:02;99766.25;;;12.58;100.00
74524;BME280;63074;44.696;10.358;2023-05-10T09:20:28;99764.00;;;12.77;100.00
74524;BME280;63074;44.696;10.358;2023-05-10T09:22:55;99762.44;;;12.54;100.00
74524;BME280;63074;44.696;10.358;2023-05-10T09:25:21;99762.91;;;12.78;100.00
74524;BME280;63074;44.696;10.358;2023-05-10T09:27:49;99758.63;;;12.23;100.00
74524;BME280;63074;44.696;10.358;2023-05-10T09:30:30;99764.34;;;12.05;100.00
74524;BME280;63074;44.696;10.358;2023-05-10T09:32:58;99771.06;;;12.02;100.00
74524;BME280;63074;44.696;10.358;2023-05-10T09:35:26;99772.97;;;12.29;100.00
74524;BME280;63074;44.696;10.358;2023-05-10T09:37:54;99767.28;;;12.03;100.00
74524;BME280;63074;44.696;10.358;2023-05-10T09:40:23;99775.91;;;12.81;100.00
74524;BME280;63074;44.696;10.358;2023-05-10T09:43:09;99768.00;;;12.74;100.00
74524;BME280;63074;44.696;10.358;2023-05-10T09:45:36;99769.34;;;13.04;100.00
74524;BME280;63074;44.696;10.358;2023-05-10T09:48:03;99770.81;;;13.16;100.00
74524;BME280;63074;44.696;10.358;2023-05-10T09:50:30;99768.75;;;12.97;100.00
74524;BME280;63074;44.696;10.358;2023-05-10T09:52:58;99730.56;;;19.53;100.00
74524;BME280;63074;44.696;10.358;2023-05-10T09:55:46;99751.56;;;18.50;100.00
74524;BME280;63074;44.696;10.358;2023-05-10T09:58:15;99764.88;;;19.82;100.00
74524;BME280;63074;44.696;10.358;2023-05-10T10:00:43;99795.63;;;20.23;100.00
74524;BME280;63074;44.696;10.358;2023-05-10T10:03:14;99757.13;;;18.64;100.00
74524;BME280;63074;44.696;10.358;2023-05-10T10:05:42;99741.69;;;18.60;100.00
74524;BME280;63074;44.696;10.358;2023-05-10T10:08:09;99756.06;;;18.41;100.00
74524;BME280;63074;44.696;10.358;2023-05-10T10:10:35;99760.03;;;19.19;100.00
74524;BME280;63074;44.696;10.358;2023-05-10T10:13:02;99774.69;;;19.37;100.00
74524;BME280;63074;44.696;10.358;2023-05-10T10:15:28;99762.94;;;19.55;100.00
74524;BME280;63074;44.696;10.358;2023-05-10T10:17:55;99791.81;;;19.56;100.00
74524;BME280;63074;44.696;10.358;2023-05-10T10:20:23;99764.00;;;19.40;100.00
74524;BME280;63074;44.696;10.358;2023-05-10T10:22:50;99778.19;;;20.11;100.00
74524;BME280;63074;44.696;10.358;2023-05-10T10:25:17;99771.34;;;19.26;100.00
74524;BME280;63074;44.696;10.358;2023-05-10T10:33:30;99825.00;;;22.19;100.00
74524;BME280;63074;44.696;10.358;2023-05-10T10:36:00;99819.22;;;21.50;100.00
74524;BME280;63074;44.696;10.358;2023-05-10T10:38:37;99813.22;;;22.10;100.00
74524;BME280;63074;44.696;10.358;2023-05-10T10:41:22;99800.34;;;20.59;100.00
74524;BME280;63074;44.696;10.358;2023-05-10T10:50:07;99798.28;;;21.45;100.00
74524;BME280;63074;44.696;10.358;2023-05-10T10:52:37;99789.34;;;21.93;100.00
74524;BME280;63074;44.696;10.358;2023-05-10T10:55:17;99790.06;;;22.24;100.00
74524;BME280;63074;44.696;10.358;2023-05-10T10:57:56;99813.66;;;22.69;100.00
74524;BME280;63074;44.696;10.358;2023-05-10T11:00:37;99819.16;;;23.03;100.00
74524;BME280;63074;44.696;10.358;2023-05-10T11:03:11;99811.91;;;23.07;100.00
74524;BME280;63074;44.696;10.358;2023-05-10T11:05:57;99812.22;;;21.35;100.00
74524;BME280;63074;44.696;10.358;2023-05-10T11:08:28;99755.63;;;20.91;100.00
74524;BME280;63074;44.696;10.358;2023-05-10T11:13:39;99793.31;;;22.35;100.00
74524;BME280;63074;44.696;10.358;2023-05-10T11:16:14;99710.16;;;20.28;100.00
74524;BME280;63074;44.696;10.358;2023-05-10T11:18:53;99749.81;;;21.06;100.00
74524;BME280;63074;44.696;10.358;2023-05-10T11:23:54;99775.06;;;17.56;100.00
74524;BME280;63074;44.696;10.358;2023-05-10T11:26:35;99642.16;;;14.96;100.00
74524;BME280;63074;44.696;10.358;2023-05-10T11:29:01;99730.59;;;14.40;100.00
74524;BME280;63074;44.696;10.358;2023-05-10T11:31:29;99731.72;;;14.69;100.00
74524;BME280;63074;44.696;10.358;2023-05-10T11:33:57;99731.16;;;14.47;100.00
74524;BME280;63074;44.696;10.358;2023-05-10T11:36:29;99736.00;;;13.62;100.00
74524;BME280;63074;44.696;10.358;2023-05-10T11:38:56;99734.91;;;13.63;100.00
74524;BME280;63074;44.696;10.358;2023-05-10T11:41:23;99734.72;;;12.91;100.00
74524;BME280;63074;44.696;10.358;2023-05-10T11:43:51;99729.03;;;12.87;100.00
74524;BME280;63074;44.696;10.358;2023-05-10T11:46:19;99742.84;;;12.96;100.00
74524;BME280;63074;44.696;10.358;2023-05-10T11:48:51;99736.91;;;13.26;100.00
74524;BME280;63074;44.696;10.358;2023-05-10T11:51:24;99735.84;;;12.95;100.00
74524;BME280;63074;44.696;10.358;2023-05-10T11:53:53;99735.63;;;12.69;100.00
74524;BME280;63074;44.696;10.358;2023-05-10T11:56:20;99734.97;;;12.89;100.00
74524;BME280;63074;44.696;10.358;2023-05-10T11:58:54;99734.97;;;13.21;100.00
74524;BME280;63074;44.696;10.358;2023-05-10T12:01:22;99727.84;;;13.10;100.00
74524;BME280;63074;44.696;10.358;2023-05-10T12:03:50;99731.97;;;12.85;100.00
74524;BME280;63074;44.696;10.358;2023-05-10T12:06:18;99733.31;;;12.83;100.00
74524;BME280;63074;44.696;10.358;2023-05-10T12:08:46;99740.69;;;12.61;100.00
74524;BME280;63074;44.696;10.358;2023-05-10T12:11:13;99736.25;;;12.81;100.00
74524;BME280;63074;44.696;10.358;2023-05-10T12:13:42;99736.66;;;12.95;100.00
74524;BME280;63074;44.696;10.358;2023-05-10T12:16:16;99738.97;;;12.81;100.00
74524;BME280;63074;44.696;10.358;2023-05-10T12:18:42;99736.06;;;13.72;100.00
74524;BME280;63074;44.696;10.358;2023-05-10T12:21:10;99733.38;;;13.30;100.00
74524;BME280;63074;44.696;10.358;2023-05-10T12:23:38;99721.38;;;13.48;100.00
74524;BME280;63074;44.696;10.358;2023-05-10T12:26:05;99715.22;;;13.63;100.00
74524;BME280;63074;44.696;10.358;2023-05-10T12:28:33;99713.84;;;13.13;100.00
74524;BME280;63074;44.696;10.358;2023-05-10T12:31:03;99719.75;;;13.57;100.00
74524;BME280;63074;44.696;10.358;2023-05-10T12:33:37;99712.88;;;13.81;100.00
74524;BME280;63074;44.696;10.358;2023-05-10T12:36:05;99720.00;;;12.71;100.00
74524;BME280;63074;44.696;10.358;2023-05-10T12:38:44;99729.34;;;12.59;100.00
74524;BME280;63074;44.696;10.358;2023-05-10T12:41:17;99729.88;;;12.93;100.00
74524;BME280;63074;44.696;10.358;2023-05-10T12:43:44;99725.06;;;13.00;100.00
74524;BME280;63074;44.696;10.358;2023-05-10T12:46:16;99727.78;;;13.37;100.00
74524;BME280;63074;44.696;10.358;2023-05-10T12:48:44;99729.38;;;13.01;100.00
74524;BME280;63074;44.696;10.358;2023-05-10T12:51:11;99729.28;;;13.17;100.00
74524;BME280;63074;44.696;10.358;2023-05-10T12:53:39;99730.28;;;13.11;100.00
74524;BME280;63074;44.696;10.358;2023-05-10T12:56:06;99726.31;;;13.19;100.00
74524;BME280;63074;44.696;10.358;2023-05-10T12:58:32;99723.91;;;13.75;100.00
74524;BME280;63074;44.696;10.358;2023-05-10T13:00:59;99724.41;;;13.67;100.00
74524;BME280;63074;44.696;10.358;2023-05-10T13:03:26;99719.28;;;13.65;100.00
74524;BME280;63074;44.696;10.358;2023-05-10T13:05:52;99724.13;;;13.63;100.00
74524;BME280;63074;44.696;10.358;2023-05-10T13:08:18;99715.72;;;13.55;100.00
74524;BME280;63074;44.696;10.358;2023-05-10T13:10:44;99715.03;;;13.79;100.00
74524;BME280;63074;44.696;10.358;2023-05-10T13:13:11;99722.16;;;14.11;100.00
74524;BME280;63074;44.696;10.358;2023-05-10T13:15:37;99711.13;;;13.50;100.00
74524;BME280;63074;44.696;10.358;2023-05-10T13:18:03;99708.25;;;13.77;100.00
74524;BME280;63074;44.696;10.358;2023-05-10T13:20:30;99707.63;;;13.12;100.00